sensor_id;sensor_type;location;lat;lon;timestamp;P1;durP1;ratioP1;P2;durP2;ratioP2
4585;SDS011;2305;50.118;8.952;2023-04-25T00:01:31;8.77;;;4.60;;
4585;SDS011;2305;50.118;8.952;2023-04-25T00:04:04;5.20;;;4.13;;
4585;SDS011;2305;50.118;8.952;2023-04-25T00:06:35;6.37;;;4.10;;
4585;SDS011;2305;50.118;8.952;2023-04-25T00:09:04;4.90;;;3.87;;
4585;SDS011;2305;50.118;8.952;2023-04-25T00:11:37;7.70;;;5.00;;
4585;SDS011;2305;50.118;8.952;2023-04-25T00:14:06;5.40;;;4.30;;
4585;SDS011;2305;50.118;8.952;2023-04-25T00:16:34;10.23;;;5.07;;
4585;SDS011;2305;50.118;8.952;2023-04-25T00:19:05;5.40;;;4.70;;
4585;SDS011;2305;50.118;8.952;2023-04-25T00:21:35;7.17;;;5.10;;
4585;SDS011;2305;50.118;8.952;2023-04-25T00:24:06;6.40;;;5.10;;
4585;SDS011;2305;50.118;8.952;2023-04-25T00:26:40;5.53;;;4.50;;
4585;SDS011;2305;50.118;8.952;2023-04-25T00:29:09;6.43;;;5.20;;
4585;SDS011;2305;50.118;8.952;2023-04-25T00:31:37;6.20;;;5.23;;
4585;SDS011;2305;50.118;8.952;2023-04-25T00:34:05;6.40;;;5.47;;
4585;SDS011;2305;50.118;8.952;2023-04-25T00:36:38;6.20;;;5.10;;
4585;SDS011;2305;50.118;8.952;2023-04-25T00:39:06;5.50;;;4.63;;
4585;SDS011;2305;50.118;8.952;2023-04-25T00:41:35;7.60;;;4.90;;
4585;SDS011;2305;50.118;8.952;2023-04-25T00:44:04;6.73;;;4.97;;
4585;SDS011;2305;50.118;8.952;2023-04-25T00:46:34;7.67;;;4.50;;
4585;SDS011;2305;50.118;8.952;2023-04-25T00:49:03;6.60;;;4.83;;
4585;SDS011;2305;50.118;8.952;2023-04-25T00:51:31;7.07;;;4.47;;
4585;SDS011;2305;50.118;8.952;2023-04-25T00:54:02;6.50;;;4.50;;
4585;SDS011;2305;50.118;8.952;2023-04-25T00:56:31;6.80;;;4.83;;
4585;SDS011;2305;50.118;8.952;2023-04-25T00:58:59;7.20;;;4.63;;
4585;SDS011;2305;50.118;8.952;2023-04-25T01:01:29;5.27;;;4.50;;
4585;SDS011;2305;50.118;8.952;2023-04-25T01:03:58;5.07;;;4.13;;
4585;SDS011;2305;50.118;8.952;2023-04-25T01:06:29;10.10;;;4.90;;
4585;SDS011;2305;50.118;8.952;2023-04-25T01:08:59;5.10;;;4.00;;
4585;SDS011;2305;50.118;8.952;2023-04-25T01:11:32;7.57;;;4.53;;
4585;SDS011;2305;50.118;8.952;2023-04-25T01:14:04;6.33;;;4.30;;
4585;SDS011;2305;50.118;8.952;2023-04-25T01:16:32;5.20;;;3.97;;
4585;SDS011;2305;50.118;8.952;2023-04-25T01:19:03;7.23;;;4.40;;
4585;SDS011;2305;50.118;8.952;2023-04-25T01:21:39;5.80;;;4.07;;
4585;SDS011;2305;50.118;8.952;2023-04-25T01:24:07;5.47;;;4.33;;
4585;SDS011;2305;50.118;8.952;2023-04-25T01:26:36;4.77;;;3.67;;
4585;SDS011;2305;50.118;8.952;2023-04-25T01:29:06;7.50;;;4.23;;
4585;SDS011;2305;50.118;8.952;2023-04-25T01:31:36;8.87;;;4.43;;
4585;SDS011;2305;50.118;8.952;2023-04-25T01:34:15;5.43;;;4.10;;
4585;SDS011;2305;50.118;8.952;2023-04-25T01:36:44;7.37;;;4.90;;
4585;SDS011;2305;50.118;8.952;2023-04-25T01:39:13;6.47;;;3.90;;
4585;SDS011;2305;50.118;8.952;2023-04-25T01:41:42;8.17;;;4.40;;
4585;SDS011;2305;50.118;8.952;2023-04-25T01:44:13;6.50;;;4.83;;
4585;SDS011;2305;50.118;8.952;2023-04-25T01:46:42;5.87;;;4.50;;
4585;SDS011;2305;50.118;8.952;2023-04-25T01:49:22;5.23;;;3.93;;
4585;SDS011;2305;50.118;8.952;2023-04-25T01:51:51;6.73;;;4.40;;
4585;SDS011;2305;50.118;8.952;2023-04-25T01:54:25;6.03;;;4.50;;
4585;SDS011;2305;50.118;8.952;2023-04-25T01:56:56;8.13;;;4.30;;
4585;SDS011;2305;50.118;8.952;2023-04-25T01:59:25;8.40;;;4.60;;
4585;SDS011;2305;50.118;8.952;2023-04-25T02:02:13;4.90;;;3.90;;
4585;SDS011;2305;50.118;8.952;2023-04-25T02:04:45;8.80;;;5.00;;
4585;SDS011;2305;50.118;8.952;2023-04-25T02:07:18;5.47;;;4.57;;
4585;SDS011;2305;50.118;8.952;2023-04-25T02:09:53;7.57;;;4.43;;
4585;SDS011;2305;50.118;8.952;2023-04-25T02:12:27;5.73;;;4.47;;
4585;SDS011;2305;50.118;8.952;2023-04-25T02:15:18;5.60;;;4.53;;
4585;SDS011;2305;50.118;8.952;2023-04-25T02:17:56;8.53;;;4.90;;
4585;SDS011;2305;50.118;8.952;2023-04-25T02:20:27;6.50;;;4.60;;
4585;SDS011;2305;50.118;8.952;2023-04-25T02:22:58;7.63;;;5.20;;
4585;SDS011;2305;50.118;8.952;2023-04-25T02:25:27;8.70;;;4.63;;
4585;SDS011;2305;50.118;8.952;2023-04-25T02:27:55;5.37;;;3.90;;
4585;SDS011;2305;50.118;8.952;2023-04-25T02:30:23;6.90;;;4.87;;
4585;SDS011;2305;50.118;8.952;2023-04-25T02:32:52;8.47;;;4.60;;
4585;SDS011;2305;50.118;8.952;2023-04-25T02:35:22;5.70;;;5.03;;
4585;SDS011;2305;50.118;8.952;2023-04-25T02:37:53;6.43;;;4.77;;
4585;SDS011;2305;50.118;8.952;2023-04-25T02:40:23;7.40;;;5.10;;
4585;SDS011;2305;50.118;8.952;2023-04-25T02:42:53;7.03;;;5.03;;
4585;SDS011;2305;50.118;8.952;2023-04-25T02:45:22;9.10;;;5.13;;
4585;SDS011;2305;50.118;8.952;2023-04-25T02:47:50;6.07;;;5.00;;
4585;SDS011;2305;50.118;8.952;2023-04-25T02:50:21;6.97;;;4.97;;
4585;SDS011;2305;50.118;8.952;2023-04-25T02:52:52;10.63;;;5.17;;
4585;SDS011;2305;50.118;8.952;2023-04-25T02:55:29;8.50;;;5.70;;
4585;SDS011;2305;50.118;8.952;2023-04-25T02:58:00;8.73;;;5.83;;
4585;SDS011;2305;50.118;8.952;2023-04-25T03:00:39;7.43;;;4.80;;
4585;SDS011;2305;50.118;8.952;2023-04-25T03:03:08;12.67;;;5.77;;
4585;SDS011;2305;50.118;8.952;2023-04-25T03:05:37;5.70;;;4.70;;
4585;SDS011;2305;50.118;8.952;2023-04-25T03:08:06;8.17;;;5.90;;
4585;SDS011;2305;50.118;8.952;2023-04-25T03:10:39;5.40;;;4.60;;
4585;SDS011;2305;50.118;8.952;2023-04-25T03:13:09;7.30;;;4.97;;
4585;SDS011;2305;50.118;8.952;2023-04-25T03:15:38;7.80;;;5.83;;
4585;SDS011;2305;50.118;8.952;2023-04-25T03:18:06;8.70;;;5.30;;
4585;SDS011;2305;50.118;8.952;2023-04-25T03:20:36;10.17;;;5.77;;
4585;SDS011;2305;50.118;8.952;2023-04-25T03:23:06;10.13;;;6.57;;
4585;SDS011;2305;50.118;8.952;2023-04-25T03:25:34;8.97;;;5.90;;
4585;SDS011;2305;50.118;8.952;2023-04-25T03:28:04;8.50;;;6.07;;
4585;SDS011;2305;50.118;8.952;2023-04-25T03:30:32;6.90;;;5.13;;
4585;SDS011;2305;50.118;8.952;2023-04-25T03:33:01;10.20;;;5.23;;
4585;SDS011;2305;50.118;8.952;2023-04-25T03:35:30;6.80;;;4.87;;
4585;SDS011;2305;50.118;8.952;2023-04-25T03:37:58;11.27;;;5.70;;
4585;SDS011;2305;50.118;8.952;2023-04-25T03:40:32;7.90;;;6.17;;
4585;SDS011;2305;50.118;8.952;2023-04-25T03:43:28;11.20;;;6.50;;
4585;SDS011;2305;50.118;8.952;2023-04-25T03:46:02;14.40;;;6.90;;
4585;SDS011;2305;50.118;8.952;2023-04-25T03:48:31;7.43;;;5.63;;
4585;SDS011;2305;50.118;8.952;2023-04-25T03:50:59;10.73;;;6.40;;
4585;SDS011;2305;50.118;8.952;2023-04-25T03:53:28;17.70;;;8.50;;
4585;SDS011;2305;50.118;8.952;2023-04-25T03:56:34;14.67;;;8.97;;
4585;SDS011;2305;50.118;8.952;2023-04-25T03:59:14;23.27;;;8.70;;
4585;SDS011;2305;50.118;8.952;2023-04-25T04:01:44;15.03;;;7.60;;
4585;SDS011;2305;50.118;8.952;2023-04-25T04:04:12;22.67;;;8.60;;
4585;SDS011;2305;50.118;8.952;2023-04-25T04:06:40;18.80;;;8.30;;
4585;SDS011;2305;50.118;8.952;2023-04-25T04:09:24;16.77;;;6.60;;
4585;SDS011;2305;50.118;8.952;2023-04-25T04:11:55;7.97;;;5.70;;
4585;SDS011;2305;50.118;8.952;2023-04-25T04:14:27;13.30;;;5.70;;
4585;SDS011;2305;50.118;8.952;2023-04-25T04:16:55;11.23;;;6.13;;
4585;SDS011;2305;50.118;8.952;2023-04-25T04:19:23;9.83;;;5.50;;
4585;SDS011;2305;50.118;8.952;2023-04-25T04:22:14;11.80;;;6.20;;
4585;SDS011;2305;50.118;8.952;2023-04-25T04:24:45;12.77;;;6.30;;
4585;SDS011;2305;50.118;8.952;2023-04-25T04:27:18;12.13;;;6.23;;
4585;SDS011;2305;50.118;8.952;2023-04-25T04:29:54;17.83;;;6.00;;
4585;SDS011;2305;50.118;8.952;2023-04-25T04:32:28;9.50;;;5.97;;
4585;SDS011;2305;50.118;8.952;2023-04-25T04:34:57;10.93;;;6.37;;
4585;SDS011;2305;50.118;8.952;2023-04-25T04:37:26;11.10;;;6.57;;
4585;SDS011;2305;50.118;8.952;2023-04-25T04:39:59;10.53;;;6.50;;
4585;SDS011;2305;50.118;8.952;2023-04-25T04:42:42;11.00;;;6.30;;
4585;SDS011;2305;50.118;8.952;2023-04-25T04:45:36;16.63;;;6.40;;
4585;SDS011;2305;50.118;8.952;2023-04-25T04:48:18;14.57;;;6.20;;
4585;SDS011;2305;50.118;8.952;2023-04-25T04:50:58;16.73;;;5.40;;
4585;SDS011;2305;50.118;8.952;2023-04-25T04:53:46;14.63;;;6.37;;
4585;SDS011;2305;50.118;8.952;2023-04-25T04:56:32;17.13;;;6.50;;
4585;SDS011;2305;50.118;8.952;2023-04-25T04:59:19;16.33;;;6.77;;
4585;SDS011;2305;50.118;8.952;2023-04-25T05:02:19;13.30;;;6.50;;
4585;SDS011;2305;50.118;8.952;2023-04-25T05:04:57;13.70;;;7.27;;
4585;SDS011;2305;50.118;8.952;2023-04-25T05:08:04;14.13;;;6.13;;
4585;SDS011;2305;50.118;8.952;2023-04-25T05:10:45;13.10;;;6.50;;
4585;SDS011;2305;50.118;8.952;2023-04-25T05:13:32;12.60;;;6.10;;
4585;SDS011;2305;50.118;8.952;2023-04-25T05:16:13;15.37;;;6.93;;
4585;SDS011;2305;50.118;8.952;2023-04-25T05:19:06;13.03;;;6.93;;
4585;SDS011;2305;50.118;8.952;2023-04-25T05:21:50;14.03;;;7.57;;
4585;SDS011;2305;50.118;8.952;2023-04-25T05:24:40;20.23;;;6.30;;
4585;SDS011;2305;50.118;8.952;2023-04-25T05:27:25;13.10;;;6.00;;
4585;SDS011;2305;50.118;8.952;2023-04-25T05:30:26;11.90;;;5.20;;
4585;SDS011;2305;50.118;8.952;2023-04-25T05:33:05;12.20;;;5.40;;
4585;SDS011;2305;50.118;8.952;2023-04-25T05:35:35;8.40;;;4.73;;
4585;SDS011;2305;50.118;8.952;2023-04-25T05:38:03;9.27;;;5.00;;
4585;SDS011;2305;50.118;8.952;2023-04-25T05:40:58;13.97;;;5.20;;
4585;SDS011;2305;50.118;8.952;2023-04-25T05:43:45;9.67;;;4.87;;
4585;SDS011;2305;50.118;8.952;2023-04-25T05:46:35;14.20;;;4.90;;
4585;SDS011;2305;50.118;8.952;2023-04-25T05:49:22;16.47;;;5.70;;
4585;SDS011;2305;50.118;8.952;2023-04-25T05:52:18;14.90;;;5.00;;
4585;SDS011;2305;50.118;8.952;2023-04-25T05:54:52;8.97;;;4.27;;
4585;SDS011;2305;50.118;8.952;2023-04-25T05:57:22;10.20;;;4.80;;
4585;SDS011;2305;50.118;8.952;2023-04-25T05:59:55;21.47;;;5.60;;
4585;SDS011;2305;50.118;8.952;2023-04-25T06:02:39;11.60;;;4.53;;
4585;SDS011;2305;50.118;8.952;2023-04-25T06:05:12;10.10;;;5.30;;
4585;SDS011;2305;50.118;8.952;2023-04-25T06:07:46;10.23;;;4.37;;
4585;SDS011;2305;50.118;8.952;2023-04-25T06:10:14;7.70;;;4.50;;
4585;SDS011;2305;50.118;8.952;2023-04-25T06:12:42;9.97;;;4.43;;
4585;SDS011;2305;50.118;8.952;2023-04-25T06:15:11;8.70;;;4.60;;
4585;SDS011;2305;50.118;8.952;2023-04-25T06:17:54;8.10;;;4.70;;
4585;SDS011;2305;50.118;8.952;2023-04-25T06:20:22;12.03;;;5.10;;
4585;SDS011;2305;50.118;8.952;2023-04-25T06:22:54;7.60;;;4.60;;
4585;SDS011;2305;50.118;8.952;2023-04-25T06:25:32;11.97;;;5.40;;
4585;SDS011;2305;50.118;8.952;2023-04-25T06:28:01;9.80;;;4.20;;
4585;SDS011;2305;50.118;8.952;2023-04-25T06:30:29;6.80;;;3.50;;
4585;SDS011;2305;50.118;8.952;2023-04-25T06:33:03;7.20;;;4.40;;
4585;SDS011;2305;50.118;8.952;2023-04-25T06:35:32;9.50;;;4.27;;
4585;SDS011;2305;50.118;8.952;2023-04-25T06:38:01;18.20;;;5.30;;
4585;SDS011;2305;50.118;8.952;2023-04-25T06:40:30;13.60;;;6.10;;
4585;SDS011;2305;50.118;8.952;2023-04-25T06:43:01;7.00;;;3.90;;
4585;SDS011;2305;50.118;8.952;2023-04-25T06:45:45;16.50;;;5.77;;
4585;SDS011;2305;50.118;8.952;2023-04-25T06:48:14;9.80;;;4.50;;
4585;SDS011;2305;50.118;8.952;2023-04-25T06:50:42;11.33;;;4.53;;
4585;SDS011;2305;50.118;8.952;2023-04-25T06:53:13;11.70;;;4.57;;
4585;SDS011;2305;50.118;8.952;2023-04-25T06:55:44;12.40;;;4.87;;
4585;SDS011;2305;50.118;8.952;2023-04-25T06:58:20;10.50;;;4.93;;
4585;SDS011;2305;50.118;8.952;2023-04-25T07:00:58;7.50;;;4.27;;
4585;SDS011;2305;50.118;8.952;2023-04-25T07:03:29;10.13;;;4.60;;
4585;SDS011;2305;50.118;8.952;2023-04-25T07:06:01;10.20;;;4.60;;
4585;SDS011;2305;50.118;8.952;2023-04-25T07:08:31;10.30;;;5.10;;
4585;SDS011;2305;50.118;8.952;2023-04-25T07:10:59;16.10;;;4.10;;
4585;SDS011;2305;50.118;8.952;2023-04-25T07:13:28;9.53;;;4.50;;
4585;SDS011;2305;50.118;8.952;2023-04-25T07:15:56;7.70;;;4.07;;
4585;SDS011;2305;50.118;8.952;2023-04-25T07:18:28;10.57;;;4.13;;
4585;SDS011;2305;50.118;8.952;2023-04-25T07:20:57;8.10;;;4.00;;
4585;SDS011;2305;50.118;8.952;2023-04-25T07:23:26;6.17;;;3.93;;
4585;SDS011;2305;50.118;8.952;2023-04-25T07:25:56;10.67;;;4.90;;
4585;SDS011;2305;50.118;8.952;2023-04-25T07:28:25;6.80;;;3.70;;
4585;SDS011;2305;50.118;8.952;2023-04-25T07:30:53;6.30;;;3.57;;
4585;SDS011;2305;50.118;8.952;2023-04-25T07:33:24;9.30;;;4.23;;
4585;SDS011;2305;50.118;8.952;2023-04-25T07:35:52;8.53;;;4.33;;
4585;SDS011;2305;50.118;8.952;2023-04-25T07:38:22;5.07;;;3.73;;
4585;SDS011;2305;50.118;8.952;2023-04-25T07:40:50;5.50;;;3.47;;
4585;SDS011;2305;50.118;8.952;2023-04-25T07:43:21;9.03;;;3.87;;
4585;SDS011;2305;50.118;8.952;2023-04-25T07:45:57;8.63;;;3.47;;
4585;SDS011;2305;50.118;8.952;2023-04-25T07:48:28;5.20;;;3.40;;
4585;SDS011;2305;50.118;8.952;2023-04-25T07:50:59;6.00;;;3.30;;
4585;SDS011;2305;50.118;8.952;2023-04-25T07:53:27;13.40;;;4.60;;
4585;SDS011;2305;50.118;8.952;2023-04-25T07:56:00;6.20;;;3.47;;
4585;SDS011;2305;50.118;8.952;2023-04-25T07:58:33;7.97;;;4.60;;
4585;SDS011;2305;50.118;8.952;2023-04-25T08:01:07;9.47;;;3.60;;
4585;SDS011;2305;50.118;8.952;2023-04-25T08:03:35;9.07;;;3.60;;
4585;SDS011;2305;50.118;8.952;2023-04-25T08:06:08;8.00;;;4.00;;
4585;SDS011;2305;50.118;8.952;2023-04-25T08:08:47;6.17;;;3.73;;
4585;SDS011;2305;50.118;8.952;2023-04-25T08:11:18;8.00;;;3.77;;
4585;SDS011;2305;50.118;8.952;2023-04-25T08:13:48;5.70;;;3.70;;
4585;SDS011;2305;50.118;8.952;2023-04-25T08:16:16;7.00;;;3.50;;
4585;SDS011;2305;50.118;8.952;2023-04-25T08:18:45;6.30;;;3.53;;
4585;SDS011;2305;50.118;8.952;2023-04-25T08:21:14;6.23;;;3.53;;
4585;SDS011;2305;50.118;8.952;2023-04-25T08:23:44;8.40;;;4.10;;
4585;SDS011;2305;50.118;8.952;2023-04-25T08:26:21;7.10;;;3.03;;
4585;SDS011;2305;50.118;8.952;2023-04-25T08:28:54;6.60;;;3.40;;
4585;SDS011;2305;50.118;8.952;2023-04-25T08:31:22;9.43;;;4.10;;
4585;SDS011;2305;50.118;8.952;2023-04-25T08:33:56;6.80;;;3.53;;
4585;SDS011;2305;50.118;8.952;2023-04-25T08:36:59;8.00;;;4.03;;
4585;SDS011;2305;50.118;8.952;2023-04-25T08:39:38;5.60;;;3.33;;
4585;SDS011;2305;50.118;8.952;2023-04-25T08:42:29;5.83;;;3.17;;
4585;SDS011;2305;50.118;8.952;2023-04-25T08:45:04;6.20;;;3.40;;
4585;SDS011;2305;50.118;8.952;2023-04-25T08:47:37;4.07;;;3.10;;
4585;SDS011;2305;50.118;8.952;2023-04-25T08:50:06;8.57;;;4.13;;
4585;SDS011;2305;50.118;8.952;2023-04-25T08:52:36;5.07;;;3.70;;
4585;SDS011;2305;50.118;8.952;2023-04-25T08:55:08;8.20;;;3.83;;
4585;SDS011;2305;50.118;8.952;2023-04-25T08:57:40;7.20;;;3.17;;
4585;SDS011;2305;50.118;8.952;2023-04-25T09:00:12;9.97;;;3.97;;
4585;SDS011;2305;50.118;8.952;2023-04-25T09:02:45;7.40;;;3.07;;
4585;SDS011;2305;50.118;8.952;2023-04-25T09:05:18;8.20;;;3.50;;
4585;SDS011;2305;50.118;8.952;2023-04-25T09:07:50;5.47;;;3.30;;
4585;SDS011;2305;50.118;8.952;2023-04-25T09:10:21;9.10;;;3.40;;
4585;SDS011;2305;50.118;8.952;2023-04-25T09:15:52;7.53;;;3.30;;
4585;SDS011;2305;50.118;8.952;2023-04-25T09:18:45;9.03;;;3.27;;
4585;SDS011;2305;50.118;8.952;2023-04-25T09:21:16;6.60;;;3.40;;
4585;SDS011;2305;50.118;8.952;2023-04-25T09:23:53;10.50;;;3.80;;
4585;SDS011;2305;50.118;8.952;2023-04-25T09:26:26;17.87;;;3.20;;
4585;SDS011;2305;50.118;8.952;2023-04-25T09:29:04;9.23;;;3.60;;
4585;SDS011;2305;50.118;8.952;2023-04-25T09:31:41;5.40;;;2.80;;
4585;SDS011;2305;50.118;8.952;2023-04-25T09:34:12;7.70;;;3.83;;
4585;SDS011;2305;50.118;8.952;2023-04-25T09:36:50;4.97;;;3.07;;
4585;SDS011;2305;50.118;8.952;2023-04-25T09:39:45;8.63;;;3.50;;
4585;SDS011;2305;50.118;8.952;2023-04-25T09:42:18;4.73;;;2.80;;
4585;SDS011;2305;50.118;8.952;2023-04-25T09:44:53;9.17;;;3.20;;
4585;SDS011;2305;50.118;8.952;2023-04-25T09:47:27;4.53;;;2.67;;
4585;SDS011;2305;50.118;8.952;2023-04-25T09:49:57;8.93;;;3.40;;
4585;SDS011;2305;50.118;8.952;2023-04-25T09:52:30;5.77;;;3.00;;
4585;SDS011;2305;50.118;8.952;2023-04-25T09:55:26;7.03;;;3.53;;
4585;SDS011;2305;50.118;8.952;2023-04-25T09:58:00;7.60;;;3.20;;
4585;SDS011;2305;50.118;8.952;2023-04-25T10:00:35;6.37;;;4.37;;
4585;SDS011;2305;50.118;8.952;2023-04-25T10:03:20;5.20;;;3.43;;
4585;SDS011;2305;50.118;8.952;2023-04-25T10:06:09;8.23;;;4.33;;
4585;SDS011;2305;50.118;8.952;2023-04-25T10:08:44;8.57;;;3.53;;
4585;SDS011;2305;50.118;8.952;2023-04-25T10:11:18;9.80;;;4.43;;
4585;SDS011;2305;50.118;8.952;2023-04-25T10:13:49;7.43;;;4.40;;
4585;SDS011;2305;50.118;8.952;2023-04-25T10:16:21;9.70;;;3.20;;
4585;SDS011;2305;50.118;8.952;2023-04-25T10:18:53;5.50;;;3.13;;
4585;SDS011;2305;50.118;8.952;2023-04-25T10:21:25;7.60;;;3.13;;
4585;SDS011;2305;50.118;8.952;2023-04-25T10:23:58;6.47;;;3.47;;
4585;SDS011;2305;50.118;8.952;2023-04-25T10:26:31;6.50;;;4.07;;
4585;SDS011;2305;50.118;8.952;2023-04-25T10:29:03;7.00;;;3.20;;
4585;SDS011;2305;50.118;8.952;2023-04-25T10:31:44;11.10;;;3.80;;
4585;SDS011;2305;50.118;8.952;2023-04-25T10:34:17;7.13;;;3.70;;
4585;SDS011;2305;50.118;8.952;2023-04-25T10:36:50;7.43;;;4.10;;
4585;SDS011;2305;50.118;8.952;2023-04-25T10:39:23;5.80;;;3.77;;
4585;SDS011;2305;50.118;8.952;2023-04-25T10:41:52;6.73;;;3.57;;
4585;SDS011;2305;50.118;8.952;2023-04-25T10:44:26;9.93;;;4.30;;
4585;SDS011;2305;50.118;8.952;2023-04-25T10:47:01;7.80;;;3.73;;
4585;SDS011;2305;50.118;8.952;2023-04-25T10:49:34;8.73;;;3.50;;
4585;SDS011;2305;50.118;8.952;2023-04-25T10:52:13;8.10;;;3.87;;
4585;SDS011;2305;50.118;8.952;2023-04-25T10:54:47;13.20;;;5.83;;
4585;SDS011;2305;50.118;8.952;2023-04-25T10:57:26;11.23;;;3.70;;
4585;SDS011;2305;50.118;8.952;2023-04-25T11:00:00;6.90;;;3.47;;
4585;SDS011;2305;50.118;8.952;2023-04-25T11:02:42;5.60;;;3.10;;
4585;SDS011;2305;50.118;8.952;2023-04-25T11:05:26;5.20;;;3.57;;
4585;SDS011;2305;50.118;8.952;2023-04-25T11:08:10;5.80;;;3.27;;
4585;SDS011;2305;50.118;8.952;2023-04-25T11:10:43;6.13;;;2.67;;
4585;SDS011;2305;50.118;8.952;2023-04-25T11:13:20;8.23;;;3.60;;
4585;SDS011;2305;50.118;8.952;2023-04-25T11:15:51;7.63;;;2.60;;
4585;SDS011;2305;50.118;8.952;2023-04-25T11:18:41;12.13;;;2.80;;
4585;SDS011;2305;50.118;8.952;2023-04-25T11:21:16;5.90;;;2.67;;
4585;SDS011;2305;50.118;8.952;2023-04-25T11:23:46;5.73;;;3.20;;
4585;SDS011;2305;50.118;8.952;2023-04-25T11:26:15;12.37;;;2.70;;
4585;SDS011;2305;50.118;8.952;2023-04-25T11:28:58;3.47;;;2.63;;
4585;SDS011;2305;50.118;8.952;2023-04-25T11:31:30;3.47;;;2.30;;
4585;SDS011;2305;50.118;8.952;2023-04-25T11:34:01;11.63;;;2.50;;
4585;SDS011;2305;50.118;8.952;2023-04-25T11:36:31;6.90;;;2.67;;
4585;SDS011;2305;50.118;8.952;2023-04-25T11:39:01;2.63;;;2.00;;
4585;SDS011;2305;50.118;8.952;2023-04-25T11:41:36;2.40;;;2.20;;
4585;SDS011;2305;50.118;8.952;2023-04-25T11:44:08;13.83;;;2.70;;
4585;SDS011;2305;50.118;8.952;2023-04-25T11:46:40;7.90;;;2.80;;
4585;SDS011;2305;50.118;8.952;2023-04-25T11:49:15;5.60;;;3.03;;
4585;SDS011;2305;50.118;8.952;2023-04-25T11:51:48;5.23;;;2.87;;
4585;SDS011;2305;50.118;8.952;2023-04-25T11:54:17;7.53;;;2.57;;
4585;SDS011;2305;50.118;8.952;2023-04-25T11:56:49;3.67;;;2.33;;
4585;SDS011;2305;50.118;8.952;2023-04-25T11:59:22;5.90;;;3.30;;
4585;SDS011;2305;50.118;8.952;2023-04-25T12:01:54;9.13;;;2.50;;
4585;SDS011;2305;50.118;8.952;2023-04-25T12:04:24;5.30;;;2.63;;
4585;SDS011;2305;50.118;8.952;2023-04-25T12:07:00;11.03;;;2.90;;
4585;SDS011;2305;50.118;8.952;2023-04-25T12:09:31;8.40;;;2.53;;
4585;SDS011;2305;50.118;8.952;2023-04-25T12:12:05;10.13;;;2.80;;
4585;SDS011;2305;50.118;8.952;2023-04-25T12:14:40;12.60;;;3.47;;
4585;SDS011;2305;50.118;8.952;2023-04-25T12:17:18;7.37;;;3.30;;
4585;SDS011;2305;50.118;8.952;2023-04-25T12:19:53;6.63;;;2.50;;
4585;SDS011;2305;50.118;8.952;2023-04-25T12:22:29;17.03;;;2.90;;
4585;SDS011;2305;50.118;8.952;2023-04-25T12:25:00;7.10;;;3.10;;
4585;SDS011;2305;50.118;8.952;2023-04-25T12:27:33;4.67;;;2.20;;
4585;SDS011;2305;50.118;8.952;2023-04-25T12:30:07;4.30;;;2.40;;
4585;SDS011;2305;50.118;8.952;2023-04-25T12:32:39;9.23;;;2.80;;
4585;SDS011;2305;50.118;8.952;2023-04-25T12:35:08;7.80;;;2.30;;
4585;SDS011;2305;50.118;8.952;2023-04-25T12:37:42;7.27;;;2.50;;
4585;SDS011;2305;50.118;8.952;2023-04-25T12:40:13;6.40;;;2.73;;
4585;SDS011;2305;50.118;8.952;2023-04-25T12:42:44;12.80;;;2.80;;
4585;SDS011;2305;50.118;8.952;2023-04-25T12:45:17;7.10;;;1.90;;
4585;SDS011;2305;50.118;8.952;2023-04-25T12:47:49;3.70;;;2.33;;
4585;SDS011;2305;50.118;8.952;2023-04-25T12:50:18;7.20;;;2.70;;
4585;SDS011;2305;50.118;8.952;2023-04-25T12:52:52;9.53;;;3.07;;
4585;SDS011;2305;50.118;8.952;2023-04-25T12:55:25;7.93;;;2.47;;
4585;SDS011;2305;50.118;8.952;2023-04-25T12:57:57;13.23;;;2.60;;
4585;SDS011;2305;50.118;8.952;2023-04-25T13:00:32;6.00;;;2.30;;
4585;SDS011;2305;50.118;8.952;2023-04-25T13:03:04;5.43;;;1.87;;
4585;SDS011;2305;50.118;8.952;2023-04-25T13:05:37;7.10;;;1.80;;
4585;SDS011;2305;50.118;8.952;2023-04-25T13:08:13;9.50;;;2.57;;
4585;SDS011;2305;50.118;8.952;2023-04-25T13:10:47;8.80;;;2.40;;
4585;SDS011;2305;50.118;8.952;2023-04-25T13:13:17;8.90;;;2.40;;
4585;SDS011;2305;50.118;8.952;2023-04-25T13:15:48;5.87;;;2.07;;
4585;SDS011;2305;50.118;8.952;2023-04-25T13:18:22;12.50;;;3.70;;
4585;SDS011;2305;50.118;8.952;2023-04-25T13:20:57;6.63;;;2.43;;
4585;SDS011;2305;50.118;8.952;2023-04-25T13:23:31;9.20;;;2.60;;
4585;SDS011;2305;50.118;8.952;2023-04-25T13:26:02;4.80;;;2.40;;
4585;SDS011;2305;50.118;8.952;2023-04-25T13:28:32;7.40;;;2.60;;
4585;SDS011;2305;50.118;8.952;2023-04-25T13:31:05;13.33;;;3.43;;
4585;SDS011;2305;50.118;8.952;2023-04-25T13:33:33;12.50;;;2.80;;
4585;SDS011;2305;50.118;8.952;2023-04-25T13:36:03;8.17;;;3.13;;
4585;SDS011;2305;50.118;8.952;2023-04-25T13:38:34;4.63;;;2.07;;
4585;SDS011;2305;50.118;8.952;2023-04-25T13:41:04;7.60;;;4.00;;
4585;SDS011;2305;50.118;8.952;2023-04-25T13:43:35;6.67;;;2.90;;
4585;SDS011;2305;50.118;8.952;2023-04-25T13:46:09;2.60;;;1.97;;
4585;SDS011;2305;50.118;8.952;2023-04-25T13:48:58;14.73;;;3.03;;
4585;SDS011;2305;50.118;8.952;2023-04-25T13:51:38;9.83;;;3.10;;
4585;SDS011;2305;50.118;8.952;2023-04-25T13:54:13;5.53;;;2.70;;
4585;SDS011;2305;50.118;8.952;2023-04-25T13:56:41;8.43;;;3.00;;
4585;SDS011;2305;50.118;8.952;2023-04-25T13:59:10;10.90;;;2.77;;
4585;SDS011;2305;50.118;8.952;2023-04-25T14:01:40;4.60;;;2.63;;
4585;SDS011;2305;50.118;8.952;2023-04-25T14:04:09;5.83;;;2.77;;
4585;SDS011;2305;50.118;8.952;2023-04-25T14:06:39;8.80;;;2.60;;
4585;SDS011;2305;50.118;8.952;2023-04-25T14:09:11;7.50;;;2.43;;
4585;SDS011;2305;50.118;8.952;2023-04-25T14:11:43;3.93;;;2.13;;
4585;SDS011;2305;50.118;8.952;2023-04-25T14:14:12;6.47;;;2.77;;
4585;SDS011;2305;50.118;8.952;2023-04-25T14:16:45;14.10;;;2.50;;
4585;SDS011;2305;50.118;8.952;2023-04-25T14:19:19;4.53;;;2.30;;
4585;SDS011;2305;50.118;8.952;2023-04-25T14:21:48;5.03;;;2.20;;
4585;SDS011;2305;50.118;8.952;2023-04-25T14:24:19;6.30;;;2.10;;
4585;SDS011;2305;50.118;8.952;2023-04-25T14:26:50;3.93;;;2.00;;
4585;SDS011;2305;50.118;8.952;2023-04-25T14:29:19;9.03;;;3.20;;
4585;SDS011;2305;50.118;8.952;2023-04-25T14:31:48;3.03;;;2.07;;
4585;SDS011;2305;50.118;8.952;2023-04-25T14:34:22;3.77;;;1.80;;
4585;SDS011;2305;50.118;8.952;2023-04-25T14:36:52;4.20;;;2.50;;
4585;SDS011;2305;50.118;8.952;2023-04-25T14:39:27;7.93;;;2.30;;
4585;SDS011;2305;50.118;8.952;2023-04-25T14:41:56;10.23;;;2.90;;
4585;SDS011;2305;50.118;8.952;2023-04-25T14:44:25;4.90;;;2.20;;
4585;SDS011;2305;50.118;8.952;2023-04-25T14:46:55;6.20;;;2.30;;
4585;SDS011;2305;50.118;8.952;2023-04-25T14:49:25;5.47;;;1.93;;
4585;SDS011;2305;50.118;8.952;2023-04-25T14:52:00;6.50;;;2.10;;
4585;SDS011;2305;50.118;8.952;2023-04-25T14:54:31;6.40;;;1.90;;
4585;SDS011;2305;50.118;8.952;2023-04-25T14:57:01;6.63;;;2.30;;
4585;SDS011;2305;50.118;8.952;2023-04-25T14:59:32;4.07;;;2.03;;
4585;SDS011;2305;50.118;8.952;2023-04-25T15:02:02;4.17;;;1.97;;
4585;SDS011;2305;50.118;8.952;2023-04-25T15:04:31;6.83;;;2.00;;
4585;SDS011;2305;50.118;8.952;2023-04-25T15:07:03;4.23;;;2.17;;
4585;SDS011;2305;50.118;8.952;2023-04-25T15:09:35;4.60;;;2.07;;
4585;SDS011;2305;50.118;8.952;2023-04-25T15:12:05;3.60;;;2.27;;
4585;SDS011;2305;50.118;8.952;2023-04-25T15:14:36;6.33;;;2.10;;
4585;SDS011;2305;50.118;8.952;2023-04-25T15:17:05;7.00;;;2.50;;
4585;SDS011;2305;50.118;8.952;2023-04-25T15:19:36;7.43;;;2.37;;
4585;SDS011;2305;50.118;8.952;2023-04-25T15:22:04;4.40;;;2.40;;
4585;SDS011;2305;50.118;8.952;2023-04-25T15:24:33;7.17;;;2.50;;
4585;SDS011;2305;50.118;8.952;2023-04-25T15:27:04;5.53;;;1.80;;
4585;SDS011;2305;50.118;8.952;2023-04-25T15:29:35;4.50;;;2.30;;
4585;SDS011;2305;50.118;8.952;2023-04-25T15:32:04;8.53;;;2.50;;
4585;SDS011;2305;50.118;8.952;2023-04-25T15:34:33;5.63;;;1.67;;
4585;SDS011;2305;50.118;8.952;2023-04-25T15:37:06;7.50;;;1.97;;
4585;SDS011;2305;50.118;8.952;2023-04-25T15:39:37;5.70;;;2.10;;
4585;SDS011;2305;50.118;8.952;2023-04-25T15:42:08;3.60;;;1.60;;
4585;SDS011;2305;50.118;8.952;2023-04-25T15:44:37;12.70;;;2.07;;
4585;SDS011;2305;50.118;8.952;2023-04-25T15:47:09;6.70;;;2.20;;
4585;SDS011;2305;50.118;8.952;2023-04-25T15:49:40;4.80;;;2.50;;
4585;SDS011;2305;50.118;8.952;2023-04-25T15:52:13;19.70;;;2.87;;
4585;SDS011;2305;50.118;8.952;2023-04-25T15:54:43;10.00;;;2.47;;